sensor_id;sensor_type;location;lat;lon;timestamp;pressure;altitude;pressure_sealevel;temperature
12007;BMP180;6062;47.294;12.182;2023-02-03T00:01:08;80775.00;;;1.50
12007;BMP180;6062;47.294;12.182;2023-02-03T00:03:34;80778.00;;;1.40
12007;BMP180;6062;47.294;12.182;2023-02-03T00:06:01;80775.00;;;1.40
12007;BMP180;6062;47.294;12.182;2023-02-03T00:08:27;80770.00;;;1.40
12007;BMP180;6062;47.294;12.182;2023-02-03T00:10:53;80759.00;;;1.40
12007;BMP180;6062;47.294;12.182;2023-02-03T00:13:19;80772.00;;;1.30
12007;BMP180;6062;47.294;12.182;2023-02-03T00:15:45;80763.00;;;1.20
12007;BMP180;6062;47.294;12.182;2023-02-03T00:18:11;80769.00;;;1.10
12007;BMP180;6062;47.294;12.182;2023-02-03T00:20:37;80779.00;;;1.10
12007;BMP180;6062;47.294;12.182;2023-02-03T00:23:09;80780.00;;;1.10
12007;BMP180;6062;47.294;12.182;2023-02-03T00:25:36;80781.00;;;1.10
12007;BMP180;6062;47.294;12.182;2023-02-03T00:28:03;80774.00;;;1.10
12007;BMP180;6062;47.294;12.182;2023-02-03T00:30:28;80780.00;;;1.10
12007;BMP180;6062;47.294;12.182;2023-02-03T00:32:54;80778.00;;;1.10
12007;BMP180;6062;47.294;12.182;2023-02-03T00:35:20;80774.00;;;1.10
12007;BMP180;6062;47.294;12.182;2023-02-03T00:37:54;80777.00;;;1.20
12007;BMP180;6062;47.294;12.182;2023-02-03T00:40:24;80778.00;;;1.20
12007;BMP180;6062;47.294;12.182;2023-02-03T00:42:51;80772.00;;;1.30
12007;BMP180;6062;47.294;12.182;2023-02-03T00:45:17;80774.00;;;1.30
12007;BMP180;6062;47.294;12.182;2023-02-03T00:47:43;80780.00;;;1.30
12007;BMP180;6062;47.294;12.182;2023-02-03T00:50:09;80779.00;;;1.30
12007;BMP180;6062;47.294;12.182;2023-02-03T00:52:35;80782.00;;;1.40
12007;BMP180;6062;47.294;12.182;2023-02-03T00:55:02;80797.00;;;1.30
12007;BMP180;6062;47.294;12.182;2023-02-03T00:57:28;80787.00;;;1.30
12007;BMP180;6062;47.294;12.182;2023-02-03T00:59:53;80787.00;;;1.30
12007;BMP180;6062;47.294;12.182;2023-02-03T01:02:20;80773.00;;;1.30
12007;BMP180;6062;47.294;12.182;2023-02-03T01:04:46;80778.00;;;1.30
12007;BMP180;6062;47.294;12.182;2023-02-03T01:07:13;80796.00;;;1.30
12007;BMP180;6062;47.294;12.182;2023-02-03T01:09:38;80784.00;;;1.20
12007;BMP180;6062;47.294;12.182;2023-02-03T01:12:04;80803.00;;;1.20
12007;BMP180;6062;47.294;12.182;2023-02-03T01:14:31;80802.00;;;1.30
12007;BMP180;6062;47.294;12.182;2023-02-03T01:16:57;80796.00;;;1.30
12007;BMP180;6062;47.294;12.182;2023-02-03T01:19:24;80785.00;;;1.30
12007;BMP180;6062;47.294;12.182;2023-02-03T01:21:50;80776.00;;;1.40
12007;BMP180;6062;47.294;12.182;2023-02-03T01:24:16;80794.00;;;1.40
12007;BMP180;6062;47.294;12.182;2023-02-03T01:26:42;80793.00;;;1.40
12007;BMP180;6062;47.294;12.182;2023-02-03T01:29:08;80792.00;;;1.40
12007;BMP180;6062;47.294;12.182;2023-02-03T01:31:40;80798.00;;;1.40
12007;BMP180;6062;47.294;12.182;2023-02-03T01:34:11;80794.00;;;1.40
12007;BMP180;6062;47.294;12.182;2023-02-03T01:36:38;80799.00;;;1.50
12007;BMP180;6062;47.294;12.182;2023-02-03T01:39:05;80779.00;;;1.50
12007;BMP180;6062;47.294;12.182;2023-02-03T01:41:36;80786.00;;;1.50
12007;BMP180;6062;47.294;12.182;2023-02-03T01:44:45;80788.00;;;1.50
12007;BMP180;6062;47.294;12.182;2023-02-03T01:47:30;80770.00;;;1.50
12007;BMP180;6062;47.294;12.182;2023-02-03T01:50:18;80776.00;;;1.50
12007;BMP180;6062;47.294;12.182;2023-02-03T01:52:52;80787.00;;;1.50
12007;BMP180;6062;47.294;12.182;2023-02-03T01:55:28;80782.00;;;1.50
12007;BMP180;6062;47.294;12.182;2023-02-03T01:58:03;80776.00;;;1.50
12007;BMP180;6062;47.294;12.182;2023-02-03T02:00:30;80797.00;;;1.50
12007;BMP180;6062;47.294;12.182;2023-02-03T02:02:59;80788.00;;;1.50
12007;BMP180;6062;47.294;12.182;2023-02-03T02:05:34;80782.00;;;1.60
12007;BMP180;6062;47.294;12.182;2023-02-03T02:08:03;80772.00;;;1.60
12007;BMP180;6062;47.294;12.182;2023-02-03T02:10:32;80788.00;;;1.60
12007;BMP180;6062;47.294;12.182;2023-02-03T02:12:59;80784.00;;;1.60
12007;BMP180;6062;47.294;12.182;2023-02-03T02:33:46;80784.00;;;1.70
12007;BMP180;6062;47.294;12.182;2023-02-03T02:36:29;80761.00;;;1.70
12007;BMP180;6062;47.294;12.182;2023-02-03T02:39:42;80773.00;;;1.70
12007;BMP180;6062;47.294;12.182;2023-02-03T02:42:03;80761.00;;;1.70
12007;BMP180;6062;47.294;12.182;2023-02-03T02:44:42;80765.00;;;1.70
12007;BMP180;6062;47.294;12.182;2023-02-03T02:47:27;80771.00;;;1.70
12007;BMP180;6062;47.294;12.182;2023-02-03T02:50:10;80756.00;;;1.70
12007;BMP180;6062;47.294;12.182;2023-02-03T02:52:41;80765.00;;;1.70
12007;BMP180;6062;47.294;12.182;2023-02-03T02:55:25;80766.00;;;1.70
12007;BMP180;6062;47.294;12.182;2023-02-03T02:57:57;80773.00;;;1.60
12007;BMP180;6062;47.294;12.182;2023-02-03T03:00:24;80784.00;;;1.60
12007;BMP180;6062;47.294;12.182;2023-02-03T03:02:49;80795.00;;;1.60
12007;BMP180;6062;47.294;12.182;2023-02-03T03:05:17;80792.00;;;1.60
12007;BMP180;6062;47.294;12.182;2023-02-03T03:07:53;80785.00;;;1.50
12007;BMP180;6062;47.294;12.182;2023-02-03T03:10:24;80790.00;;;1.50
12007;BMP180;6062;47.294;12.182;2023-02-03T03:13:04;80794.00;;;1.50
12007;BMP180;6062;47.294;12.182;2023-02-03T03:15:33;80795.00;;;1.50
12007;BMP180;6062;47.294;12.182;2023-02-03T03:18:35;80788.00;;;1.50
12007;BMP180;6062;47.294;12.182;2023-02-03T03:21:02;80779.00;;;1.40
12007;BMP180;6062;47.294;12.182;2023-02-03T03:23:38;80795.00;;;1.40
12007;BMP180;6062;47.294;12.182;2023-02-03T03:26:32;80796.00;;;1.40
12007;BMP180;6062;47.294;12.182;2023-02-03T03:29:14;80786.00;;;1.40
12007;BMP180;6062;47.294;12.182;2023-02-03T03:31:43;80773.00;;;1.40
12007;BMP180;6062;47.294;12.182;2023-02-03T03:34:11;80774.00;;;1.40
12007;BMP180;6062;47.294;12.182;2023-02-03T03:36:56;80771.00;;;1.40
12007;BMP180;6062;47.294;12.182;2023-02-03T03:39:47;80766.00;;;1.40
12007;BMP180;6062;47.294;12.182;2023-02-03T03:42:40;80785.00;;;1.40
12007;BMP180;6062;47.294;12.182;2023-02-03T03:47:59;80785.00;;;1.30
12007;BMP180;6062;47.294;12.182;2023-02-03T03:50:46;80799.00;;;1.30
12007;BMP180;6062;47.294;12.182;2023-02-03T03:53:16;80804.00;;;1.30
12007;BMP180;6062;47.294;12.182;2023-02-03T03:55:47;80810.00;;;1.30
12007;BMP180;6062;47.294;12.182;2023-02-03T03:58:23;80796.00;;;1.30
12007;BMP180;6062;47.294;12.182;2023-02-03T04:00:54;80790.00;;;1.30
12007;BMP180;6062;47.294;12.182;2023-02-03T04:03:27;80778.00;;;1.40
12007;BMP180;6062;47.294;12.182;2023-02-03T04:05:54;80787.00;;;1.40
12007;BMP180;6062;47.294;12.182;2023-02-03T04:08:20;80787.00;;;1.40
12007;BMP180;6062;47.294;12.182;2023-02-03T04:10:46;80796.00;;;1.40
12007;BMP180;6062;47.294;12.182;2023-02-03T04:13:12;80799.00;;;1.40
12007;BMP180;6062;47.294;12.182;2023-02-03T04:15:38;80802.00;;;1.40
12007;BMP180;6062;47.294;12.182;2023-02-03T04:18:05;80796.00;;;1.40
12007;BMP180;6062;47.294;12.182;2023-02-03T04:20:31;80796.00;;;1.40
12007;BMP180;6062;47.294;12.182;2023-02-03T04:22:58;80788.00;;;1.40
12007;BMP180;6062;47.294;12.182;2023-02-03T04:25:25;80789.00;;;1.40
12007;BMP180;6062;47.294;12.182;2023-02-03T04:27:50;80772.00;;;1.40
12007;BMP180;6062;47.294;12.182;2023-02-03T04:30:16;80765.00;;;1.40
12007;BMP180;6062;47.294;12.182;2023-02-03T04:32:44;80772.00;;;1.40
12007;BMP180;6062;47.294;12.182;2023-02-03T04:35:10;80769.00;;;1.40
12007;BMP180;6062;47.294;12.182;2023-02-03T04:37:36;80771.00;;;1.40
12007;BMP180;6062;47.294;12.182;2023-02-03T04:40:02;80755.00;;;1.40
12007;BMP180;6062;47.294;12.182;2023-02-03T04:42:28;80760.00;;;1.40
12007;BMP180;6062;47.294;12.182;2023-02-03T04:44:54;80750.00;;;1.40
12007;BMP180;6062;47.294;12.182;2023-02-03T04:47:20;80764.00;;;1.40
12007;BMP180;6062;47.294;12.182;2023-02-03T04:49:46;80746.00;;;1.40
12007;BMP180;6062;47.294;12.182;2023-02-03T04:52:12;80744.00;;;1.40
12007;BMP180;6062;47.294;12.182;2023-02-03T04:54:38;80749.00;;;1.40
12007;BMP180;6062;47.294;12.182;2023-02-03T04:57:04;80759.00;;;1.40
12007;BMP180;6062;47.294;12.182;2023-02-03T04:59:30;80765.00;;;1.40
12007;BMP180;6062;47.294;12.182;2023-02-03T05:01:56;80759.00;;;1.40
12007;BMP180;6062;47.294;12.182;2023-02-03T05:04:22;80761.00;;;1.40
12007;BMP180;6062;47.294;12.182;2023-02-03T05:06:48;80765.00;;;1.40
12007;BMP180;6062;47.294;12.182;2023-02-03T05:09:14;80777.00;;;1.40
12007;BMP180;6062;47.294;12.182;2023-02-03T05:11:40;80783.00;;;1.40
12007;BMP180;6062;47.294;12.182;2023-02-03T05:14:06;80795.00;;;1.40
12007;BMP180;6062;47.294;12.182;2023-02-03T05:16:31;80806.00;;;1.40
12007;BMP180;6062;47.294;12.182;2023-02-03T05:18:57;80812.00;;;1.40
12007;BMP180;6062;47.294;12.182;2023-02-03T05:21:23;80792.00;;;1.40
12007;BMP180;6062;47.294;12.182;2023-02-03T05:23:49;80790.00;;;1.40
12007;BMP180;6062;47.294;12.182;2023-02-03T05:26:14;80794.00;;;1.40
12007;BMP180;6062;47.294;12.182;2023-02-03T05:28:40;80790.00;;;1.40
12007;BMP180;6062;47.294;12.182;2023-02-03T05:31:06;80800.00;;;1.40
12007;BMP180;6062;47.294;12.182;2023-02-03T05:33:32;80814.00;;;1.40
12007;BMP180;6062;47.294;12.182;2023-02-03T05:35:57;80828.00;;;1.40
12007;BMP180;6062;47.294;12.182;2023-02-03T05:38:23;80835.00;;;1.40
12007;BMP180;6062;47.294;12.182;2023-02-03T05:40:51;80850.00;;;1.40
12007;BMP180;6062;47.294;12.182;2023-02-03T05:43:36;80844.00;;;1.40
12007;BMP180;6062;47.294;12.182;2023-02-03T05:46:04;80839.00;;;1.40
12007;BMP180;6062;47.294;12.182;2023-02-03T05:48:30;80828.00;;;1.40
12007;BMP180;6062;47.294;12.182;2023-02-03T05:50:56;80817.00;;;1.40
12007;BMP180;6062;47.294;12.182;2023-02-03T05:53:22;80854.00;;;1.40
12007;BMP180;6062;47.294;12.182;2023-02-03T05:55:48;80854.00;;;1.40
12007;BMP180;6062;47.294;12.182;2023-02-03T05:58:13;80848.00;;;1.40
12007;BMP180;6062;47.294;12.182;2023-02-03T06:00:39;80850.00;;;1.40
12007;BMP180;6062;47.294;12.182;2023-02-03T06:03:05;80837.00;;;1.40
12007;BMP180;6062;47.294;12.182;2023-02-03T06:05:32;80828.00;;;1.40
12007;BMP180;6062;47.294;12.182;2023-02-03T06:07:59;80836.00;;;1.40
12007;BMP180;6062;47.294;12.182;2023-02-03T06:10:26;80823.00;;;1.40
12007;BMP180;6062;47.294;12.182;2023-02-03T06:12:52;80844.00;;;1.40
12007;BMP180;6062;47.294;12.182;2023-02-03T06:15:18;80839.00;;;1.40
12007;BMP180;6062;47.294;12.182;2023-02-03T06:17:46;80836.00;;;1.30
12007;BMP180;6062;47.294;12.182;2023-02-03T06:20:15;80837.00;;;1.40
12007;BMP180;6062;47.294;12.182;2023-02-03T06:22:41;80831.00;;;1.40
12007;BMP180;6062;47.294;12.182;2023-02-03T06:25:09;80832.00;;;1.40
12007;BMP180;6062;47.294;12.182;2023-02-03T06:27:34;80809.00;;;1.30
12007;BMP180;6062;47.294;12.182;2023-02-03T06:30:00;80822.00;;;1.30
12007;BMP180;6062;47.294;12.182;2023-02-03T06:32:26;80819.00;;;1.30
12007;BMP180;6062;47.294;12.182;2023-02-03T06:34:52;80822.00;;;1.30
12007;BMP180;6062;47.294;12.182;2023-02-03T06:37:18;80807.00;;;1.30
12007;BMP180;6062;47.294;12.182;2023-02-03T06:39:44;80799.00;;;1.30
12007;BMP180;6062;47.294;12.182;2023-02-03T06:42:09;80802.00;;;1.20
12007;BMP180;6062;47.294;12.182;2023-02-03T06:44:35;80786.00;;;1.20
12007;BMP180;6062;47.294;12.182;2023-02-03T06:47:01;80789.00;;;1.10
12007;BMP180;6062;47.294;12.182;2023-02-03T06:49:28;80798.00;;;1.10
12007;BMP180;6062;47.294;12.182;2023-02-03T06:51:54;80788.00;;;1.10
12007;BMP180;6062;47.294;12.182;2023-02-03T06:54:20;80804.00;;;1.10
12007;BMP180;6062;47.294;12.182;2023-02-03T06:56:46;80799.00;;;1.10
12007;BMP180;6062;47.294;12.182;2023-02-03T06:59:12;80804.00;;;1.20
12007;BMP180;6062;47.294;12.182;2023-02-03T07:01:38;80799.00;;;1.30
12007;BMP180;6062;47.294;12.182;2023-02-03T07:04:04;80798.00;;;1.30
12007;BMP180;6062;47.294;12.182;2023-02-03T07:06:31;80797.00;;;1.50
12007;BMP180;6062;47.294;12.182;2023-02-03T07:09:01;80809.00;;;1.70
12007;BMP180;6062;47.294;12.182;2023-02-03T07:11:27;80824.00;;;1.90
12007;BMP180;6062;47.294;12.182;2023-02-03T07:13:53;80814.00;;;2.10
12007;BMP180;6062;47.294;12.182;2023-02-03T07:16:19;80809.00;;;2.30
12007;BMP180;6062;47.294;12.182;2023-02-03T07:18:46;80810.00;;;2.50
12007;BMP180;6062;47.294;12.182;2023-02-03T07:21:13;80810.00;;;2.70
12007;BMP180;6062;47.294;12.182;2023-02-03T07:23:39;80817.00;;;2.90
12007;BMP180;6062;47.294;12.182;2023-02-03T07:26:06;80810.00;;;3.10
12007;BMP180;6062;47.294;12.182;2023-02-03T07:28:34;80804.00;;;3.20
12007;BMP180;6062;47.294;12.182;2023-02-03T07:31:00;80810.00;;;3.30
12007;BMP180;6062;47.294;12.182;2023-02-03T07:33:27;80812.00;;;3.40
12007;BMP180;6062;47.294;12.182;2023-02-03T07:35:55;80812.00;;;3.40
12007;BMP180;6062;47.294;12.182;2023-02-03T07:38:22;80803.00;;;3.40
12007;BMP180;6062;47.294;12.182;2023-02-03T07:40:48;80803.00;;;3.40
12007;BMP180;6062;47.294;12.182;2023-02-03T07:43:14;80805.00;;;3.30
12007;BMP180;6062;47.294;12.182;2023-02-03T07:45:40;80806.00;;;3.30
12007;BMP180;6062;47.294;12.182;2023-02-03T07:48:06;80811.00;;;3.20
12007;BMP180;6062;47.294;12.182;2023-02-03T07:50:32;80813.00;;;3.20
12007;BMP180;6062;47.294;12.182;2023-02-03T07:52:59;80794.00;;;3.20
12007;BMP180;6062;47.294;12.182;2023-02-03T07:55:25;80791.00;;;3.10
12007;BMP180;6062;47.294;12.182;2023-02-03T07:57:56;80787.00;;;2.90
12007;BMP180;6062;47.294;12.182;2023-02-03T08:00:23;80795.00;;;2.80
12007;BMP180;6062;47.294;12.182;2023-02-03T08:02:49;80803.00;;;2.70
12007;BMP180;6062;47.294;12.182;2023-02-03T08:05:16;80812.00;;;2.70
12007;BMP180;6062;47.294;12.182;2023-02-03T08:07:42;80814.00;;;2.70
12007;BMP180;6062;47.294;12.182;2023-02-03T08:10:10;80815.00;;;2.80
12007;BMP180;6062;47.294;12.182;2023-02-03T08:12:36;80805.00;;;2.90
12007;BMP180;6062;47.294;12.182;2023-02-03T08:15:03;80820.00;;;3.00
12007;BMP180;6062;47.294;12.182;2023-02-03T08:17:29;80812.00;;;3.20
12007;BMP180;6062;47.294;12.182;2023-02-03T08:19:55;80818.00;;;3.30
12007;BMP180;6062;47.294;12.182;2023-02-03T08:22:20;80826.00;;;3.40
12007;BMP180;6062;47.294;12.182;2023-02-03T08:24:46;80809.00;;;3.50
12007;BMP180;6062;47.294;12.182;2023-02-03T08:27:18;80816.00;;;3.70
12007;BMP180;6062;47.294;12.182;2023-02-03T08:29:45;80810.00;;;3.90
12007;BMP180;6062;47.294;12.182;2023-02-03T08:32:14;80789.00;;;4.10
12007;BMP180;6062;47.294;12.182;2023-02-03T08:34:41;80781.00;;;4.30
12007;BMP180;6062;47.294;12.182;2023-02-03T08:37:07;80781.00;;;4.40
12007;BMP180;6062;47.294;12.182;2023-02-03T08:39:33;80788.00;;;4.60
12007;BMP180;6062;47.294;12.182;2023-02-03T08:42:00;80774.00;;;4.60
12007;BMP180;6062;47.294;12.182;2023-02-03T08:44:26;80780.00;;;4.70
12007;BMP180;6062;47.294;12.182;2023-02-03T08:46:53;80766.00;;;4.90
12007;BMP180;6062;47.294;12.182;2023-02-03T08:49:19;80759.00;;;5.00
12007;BMP180;6062;47.294;12.182;2023-02-03T08:51:46;80771.00;;;5.10
12007;BMP180;6062;47.294;12.182;2023-02-03T08:54:13;80764.00;;;5.20
12007;BMP180;6062;47.294;12.182;2023-02-03T08:56:40;80748.00;;;5.30
12007;BMP180;6062;47.294;12.182;2023-02-03T08:59:06;80734.00;;;5.40
12007;BMP180;6062;47.294;12.182;2023-02-03T09:01:32;80769.00;;;5.60
12007;BMP180;6062;47.294;12.182;2023-02-03T09:03:58;80753.00;;;5.70
12007;BMP180;6062;47.294;12.182;2023-02-03T09:06:27;80765.00;;;5.80
12007;BMP180;6062;47.294;12.182;2023-02-03T09:08:54;80770.00;;;6.00
12007;BMP180;6062;47.294;12.182;2023-02-03T09:11:20;80750.00;;;6.00
12007;BMP180;6062;47.294;12.182;2023-02-03T09:13:46;80750.00;;;5.90
12007;BMP180;6062;47.294;12.182;2023-02-03T09:16:15;80727.00;;;5.80
12007;BMP180;6062;47.294;12.182;2023-02-03T09:18:42;80747.00;;;5.80
12007;BMP180;6062;47.294;12.182;2023-02-03T09:21:10;80764.00;;;5.80
12007;BMP180;6062;47.294;12.182;2023-02-03T09:23:36;80768.00;;;5.80
12007;BMP180;6062;47.294;12.182;2023-02-03T09:26:09;80756.00;;;5.70
12007;BMP180;6062;47.294;12.182;2023-02-03T09:28:35;80779.00;;;5.60
12007;BMP180;6062;47.294;12.182;2023-02-03T09:31:10;80780.00;;;5.50
12007;BMP180;6062;47.294;12.182;2023-02-03T09:33:37;80786.00;;;5.30
12007;BMP180;6062;47.294;12.182;2023-02-03T09:36:05;80768.00;;;5.20
12007;BMP180;6062;47.294;12.182;2023-02-03T09:38:32;80771.00;;;5.20
12007;BMP180;6062;47.294;12.182;2023-02-03T09:43:55;80771.00;;;5.10
12007;BMP180;6062;47.294;12.182;2023-02-03T09:46:29;80770.00;;;5.10
12007;BMP180;6062;47.294;12.182;2023-02-03T09:49:40;80779.00;;;5.10
12007;BMP180;6062;47.294;12.182;2023-02-03T09:52:23;80777.00;;;5.10
12007;BMP180;6062;47.294;12.182;2023-02-03T09:55:00;80774.00;;;5.20
12007;BMP180;6062;47.294;12.182;2023-02-03T09:57:31;80770.00;;;5.30
12007;BMP180;6062;47.294;12.182;2023-02-03T10:00:15;80758.00;;;5.30
12007;BMP180;6062;47.294;12.182;2023-02-03T10:03:05;80778.00;;;5.30
12007;BMP180;6062;47.294;12.182;2023-02-03T10:17:41;80753.00;;;5.40
12007;BMP180;6062;47.294;12.182;2023-02-03T10:22:48;80749.00;;;5.40
12007;BMP180;6062;47.294;12.182;2023-02-03T10:25:39;80740.00;;;5.40
12007;BMP180;6062;47.294;12.182;2023-02-03T10:28:25;80747.00;;;5.40
12007;BMP180;6062;47.294;12.182;2023-02-03T10:30:59;80729.00;;;5.40
12007;BMP180;6062;47.294;12.182;2023-02-03T10:33:29;80738.00;;;5.30
12007;BMP180;6062;47.294;12.182;2023-02-03T10:36:21;80748.00;;;5.30
12007;BMP180;6062;47.294;12.182;2023-02-03T10:38:59;80737.00;;;5.30
12007;BMP180;6062;47.294;12.182;2023-02-03T10:41:28;80715.00;;;5.30
12007;BMP180;6062;47.294;12.182;2023-02-03T10:43:56;80733.00;;;5.40
12007;BMP180;6062;47.294;12.182;2023-02-03T10:46:26;80744.00;;;5.40
12007;BMP180;6062;47.294;12.182;2023-02-03T10:48:53;80718.00;;;5.50
12007;BMP180;6062;47.294;12.182;2023-02-03T10:51:36;80734.00;;;5.60
12007;BMP180;6062;47.294;12.182;2023-02-03T10:54:02;80764.00;;;5.60
12007;BMP180;6062;47.294;12.182;2023-02-03T10:56:36;80739.00;;;5.70
12007;BMP180;6062;47.294;12.182;2023-02-03T10:59:03;80734.00;;;5.70
12007;BMP180;6062;47.294;12.182;2023-02-03T11:01:47;80718.00;;;5.80
12007;BMP180;6062;47.294;12.182;2023-02-03T11:04:30;80728.00;;;5.80
12007;BMP180;6062;47.294;12.182;2023-02-03T11:07:06;80697.00;;;5.90
12007;BMP180;6062;47.294;12.182;2023-02-03T11:09:40;80708.00;;;5.90
12007;BMP180;6062;47.294;12.182;2023-02-03T11:12:12;80713.00;;;5.90
12007;BMP180;6062;47.294;12.182;2023-02-03T11:14:45;80708.00;;;6.00
12007;BMP180;6062;47.294;12.182;2023-02-03T11:17:26;80714.00;;;5.90
12007;BMP180;6062;47.294;12.182;2023-02-03T11:20:04;80740.00;;;5.80
12007;BMP180;6062;47.294;12.182;2023-02-03T11:22:39;80730.00;;;5.80
12007;BMP180;6062;47.294;12.182;2023-02-03T11:25:19;80725.00;;;5.80
12007;BMP180;6062;47.294;12.182;2023-02-03T11:27:46;80723.00;;;5.90
12007;BMP180;6062;47.294;12.182;2023-02-03T11:30:24;80735.00;;;5.90
12007;BMP180;6062;47.294;12.182;2023-02-03T11:32:51;80705.00;;;5.90
12007;BMP180;6062;47.294;12.182;2023-02-03T11:35:25;80716.00;;;6.00
12007;BMP180;6062;47.294;12.182;2023-02-03T11:37:54;80706.00;;;6.00
12007;BMP180;6062;47.294;12.182;2023-02-03T11:40:33;80711.00;;;5.90
12007;BMP180;6062;47.294;12.182;2023-02-03T11:43:15;80721.00;;;5.90
12007;BMP180;6062;47.294;12.182;2023-02-03T11:45:46;80718.00;;;5.80
12007;BMP180;6062;47.294;12.182;2023-02-03T12:05:29;80692.00;;;5.80
12007;BMP180;6062;47.294;12.182;2023-02-03T12:16:24;80704.00;;;5.50
12007;BMP180;6062;47.294;12.182;2023-02-03T12:22:25;80688.00;;;5.40
12007;BMP180;6062;47.294;12.182;2023-02-03T12:28:16;80711.00;;;5.30
12007;BMP180;6062;47.294;12.182;2023-02-03T12:30:53;80708.00;;;5.40
12007;BMP180;6062;47.294;12.182;2023-02-03T12:33:23;80720.00;;;5.40
12007;BMP180;6062;47.294;12.182;2023-02-03T12:35:58;80700.00;;;5.50
12007;BMP180;6062;47.294;12.182;2023-02-03T12:38:37;80723.00;;;5.40
12007;BMP180;6062;47.294;12.182;2023-02-03T12:41:13;80694.00;;;5.40
12007;BMP180;6062;47.294;12.182;2023-02-03T12:43:46;80697.00;;;5.30
12007;BMP180;6062;47.294;12.182;2023-02-03T12:46:25;80695.00;;;5.30
12007;BMP180;6062;47.294;12.182;2023-02-03T12:51:57;80670.00;;;5.30
12007;BMP180;6062;47.294;12.182;2023-02-03T12:55:07;80676.00;;;5.20
12007;BMP180;6062;47.294;12.182;2023-02-03T12:57:48;80661.00;;;5.30
12007;BMP180;6062;47.294;12.182;2023-02-03T13:00:40;80649.00;;;5.20
12007;BMP180;6062;47.294;12.182;2023-02-03T13:03:42;80648.00;;;5.20
12007;BMP180;6062;47.294;12.182;2023-02-03T13:06:28;80649.00;;;5.20
12007;BMP180;6062;47.294;12.182;2023-02-03T13:09:29;80656.00;;;5.30
12007;BMP180;6062;47.294;12.182;2023-02-03T13:20:16;80622.00;;;5.50
12007;BMP180;6062;47.294;12.182;2023-02-03T13:22:43;80619.00;;;5.60
12007;BMP180;6062;47.294;12.182;2023-02-03T13:25:20;80609.00;;;5.70
12007;BMP180;6062;47.294;12.182;2023-02-03T13:36:04;80612.00;;;5.80
12007;BMP180;6062;47.294;12.182;2023-02-03T13:44:11;80588.00;;;5.80
12007;BMP180;6062;47.294;12.182;2023-02-03T13:46:39;80566.00;;;5.90
12007;BMP180;6062;47.294;12.182;2023-02-03T13:49:07;80591.00;;;5.80
12007;BMP180;6062;47.294;12.182;2023-02-03T13:51:43;80592.00;;;5.70
12007;BMP180;6062;47.294;12.182;2023-02-03T13:57:21;80567.00;;;5.50
12007;BMP180;6062;47.294;12.182;2023-02-03T13:59:47;80590.00;;;5.40
12007;BMP180;6062;47.294;12.182;2023-02-03T14:04:57;80600.00;;;5.40
12007;BMP180;6062;47.294;12.182;2023-02-03T14:18:30;80577.00;;;5.20
12007;BMP180;6062;47.294;12.182;2023-02-03T14:21:20;80578.00;;;5.20
12007;BMP180;6062;47.294;12.182;2023-02-03T14:23:52;80563.00;;;5.30
12007;BMP180;6062;47.294;12.182;2023-02-03T14:26:29;80564.00;;;5.30
12007;BMP180;6062;47.294;12.182;2023-02-03T14:28:56;80562.00;;;5.20
12007;BMP180;6062;47.294;12.182;2023-02-03T14:31:24;80567.00;;;5.20
12007;BMP180;6062;47.294;12.182;2023-02-03T14:34:06;80577.00;;;5.20
12007;BMP180;6062;47.294;12.182;2023-02-03T14:36:44;80589.00;;;5.10
12007;BMP180;6062;47.294;12.182;2023-02-03T14:42:02;80581.00;;;5.10
12007;BMP180;6062;47.294;12.182;2023-02-03T14:56:19;80546.00;;;4.70
12007;BMP180;6062;47.294;12.182;2023-02-03T14:58:54;80564.00;;;4.70
12007;BMP180;6062;47.294;12.182;2023-02-03T15:06:44;80561.00;;;4.40
12007;BMP180;6062;47.294;12.182;2023-02-03T15:09:31;80568.00;;;4.40
12007;BMP180;6062;47.294;12.182;2023-02-03T15:11:59;80565.00;;;4.40
12007;BMP180;6062;47.294;12.182;2023-02-03T15:14:28;80548.00;;;4.30
12007;BMP180;6062;47.294;12.182;2023-02-03T15:17:00;80550.00;;;4.30
12007;BMP180;6062;47.294;12.182;2023-02-03T15:19:40;80543.00;;;4.20
12007;BMP180;6062;47.294;12.182;2023-02-03T15:24:54;80525.00;;;4.20
12007;BMP180;6062;47.294;12.182;2023-02-03T15:27:30;80542.00;;;4.20
12007;BMP180;6062;47.294;12.182;2023-02-03T15:29:57;80512.00;;;4.20
12007;BMP180;6062;47.294;12.182;2023-02-03T15:32:36;80503.00;;;4.10
12007;BMP180;6062;47.294;12.182;2023-02-03T15:35:10;80520.00;;;4.00
12007;BMP180;6062;47.294;12.182;2023-02-03T15:37:57;80497.00;;;4.00
12007;BMP180;6062;47.294;12.182;2023-02-03T15:40:36;80507.00;;;3.90
12007;BMP180;6062;47.294;12.182;2023-02-03T15:43:27;80515.00;;;3.80
12007;BMP180;6062;47.294;12.182;2023-02-03T15:46:19;80492.00;;;3.90
12007;BMP180;6062;47.294;12.182;2023-02-03T15:49:09;80523.00;;;3.80
12007;BMP180;6062;47.294;12.182;2023-02-03T15:51:46;80534.00;;;3.90
12007;BMP180;6062;47.294;12.182;2023-02-03T15:56:58;80522.00;;;4.00
12007;BMP180;6062;47.294;12.182;2023-02-03T15:59:35;80523.00;;;4.10
12007;BMP180;6062;47.294;12.182;2023-02-03T16:02:26;80520.00;;;4.10
12007;BMP180;6062;47.294;12.182;2023-02-03T16:04:53;80502.00;;;4.10
12007;BMP180;6062;47.294;12.182;2023-02-03T16:07:28;80513.00;;;4.20
12007;BMP180;6062;47.294;12.182;2023-02-03T16:09:57;80524.00;;;4.20
12007;BMP180;6062;47.294;12.182;2023-02-03T16:12:27;80506.00;;;4.20
12007;BMP180;6062;47.294;12.182;2023-02-03T16:14:56;80526.00;;;4.10
12007;BMP180;6062;47.294;12.182;2023-02-03T16:17:36;80505.00;;;4.10
12007;BMP180;6062;47.294;12.182;2023-02-03T16:22:42;80541.00;;;3.90
12007;BMP180;6062;47.294;12.182;2023-02-03T16:31:15;80515.00;;;3.70
12007;BMP180;6062;47.294;12.182;2023-02-03T16:34:09;80525.00;;;3.60
12007;BMP180;6062;47.294;12.182;2023-02-03T16:36:55;80514.00;;;3.60
12007;BMP180;6062;47.294;12.182;2023-02-03T16:39:39;80537.00;;;3.50
12007;BMP180;6062;47.294;12.182;2023-02-03T16:42:23;80495.00;;;3.30
12007;BMP180;6062;47.294;12.182;2023-02-03T16:45:16;80494.00;;;3.20
12007;BMP180;6062;47.294;12.182;2023-02-03T16:48:02;80464.00;;;3.10
12007;BMP180;6062;47.294;12.182;2023-02-03T16:50:46;80504.00;;;3.10
12007;BMP180;6062;47.294;12.182;2023-02-03T16:53:37;80503.00;;;3.10
12007;BMP180;6062;47.294;12.182;2023-02-03T16:56:04;80513.00;;;3.10
12007;BMP180;6062;47.294;12.182;2023-02-03T16:58:30;80508.00;;;3.20
12007;BMP180;6062;47.294;12.182;2023-02-03T17:00:59;80494.00;;;3.20
12007;BMP180;6062;47.294;12.182;2023-02-03T17:03:27;80494.00;;;3.20
12007;BMP180;6062;47.294;12.182;2023-02-03T17:05:54;80483.00;;;3.20
12007;BMP180;6062;47.294;12.182;2023-02-03T17:08:23;80485.00;;;3.20
12007;BMP180;6062;47.294;12.182;2023-02-03T17:10:50;80464.00;;;3.20
12007;BMP180;6062;47.294;12.182;2023-02-03T17:13:19;80483.00;;;3.20